Airport ICAO


00:47 UTC

-2°C


An affordable passengers' Moving Map for your aircraft. Made for the iPad and the iPhone
More information here

EGSS Stansted


London UNITED KINGDOM   VFR


METAR EGSS 230020Z AUTO 06006KT 5000 HZ NCD M02/M02 Q1023 0h27min

TAF EGSS 222255Z 2300/2406 06008KT 9999 FEW045 TEMPO 2300/2311 8000 PROB30 TEMPO 2400/2406 8000 1h52min





NOTAMS

OPEN